Time;durP1;ratioP1;P1;durP2;ratioP2;P2;SDS_P1;SDS_P2;PMS_P1;PMS_P2;Temp;Humidity;BMP_temperature;BMP_pressure;BME280_temperature;BME280_humidity;BME280_pressure;Samples;Min_cycle;Max_cycle;Signal;HPM_P1;HPM_P2
2022/01/01 00:03:56;;;;;;;0.00;0.00;;;;;;;10.14;100.00;101872.91;10412226;28;20476;-69
2022/01/01 00:08:56;;;;;;;0.10;0.10;;;;;;;10.16;100.00;101884.28;10411994;28;20538;-69
2022/01/01 00:13:57;;;;;;;0.00;0.00;;;;;;;10.15;100.00;101894.09;10411325;28;20091;-69
2022/01/01 00:18:57;;;;;;;0.05;0.05;;;;;;;10.16;100.00;101890.44;10410774;28;20303;-69
2022/01/01 00:23:57;;;;;;;0.10;0.10;;;;;;;10.13;100.00;101896.03;10423022;28;20540;-69
2022/01/01 00:28:58;;;;;;;0.10;0.10;;;;;;;10.12;100.00;101914.78;10410731;28;20022;-69
2022/01/01 00:33:59;;;;;;;0.10;0.10;;;;;;;10.10;100.00;101917.59;10410772;28;20033;-70
2022/01/01 00:38:59;;;;;;;0.10;0.10;;;;;;;10.09;100.00;101912.38;10411731;28;20379;-70
2022/01/01 00:44:00;;;;;;;0.00;0.00;;;;;;;10.07;100.00;101920.50;10408221;28;20576;-70
2022/01/01 00:49:00;;;;;;;0.10;0.10;;;;;;;10.06;100.00;101924.13;10408725;28;20056;-69
2022/01/01 00:54:01;;;;;;;0.10;0.10;;;;;;;10.05;100.00;101925.09;10411005;28;20024;-70
2022/01/01 00:59:01;;;;;;;0.00;0.00;;;;;;;10.04;100.00;101918.09;10409611;28;20275;-71
2022/01/01 01:04:01;;;;;;;0.10;0.10;;;;;;;10.04;100.00;101919.94;10413964;28;20029;-70
2022/01/01 01:09:02;;;;;;;0.10;0.10;;;;;;;10.02;100.00;101920.03;10419196;28;20059;-70
2022/01/01 01:14:07;;;;;;;0.00;0.00;;;;;;;10.00;100.00;101918.47;10409054;28;20029;-70
2022/01/01 01:19:08;;;;;;;0.10;0.10;;;;;;;10.00;100.00;101921.13;10408633;28;20108;-69
2022/01/01 01:24:08;;;;;;;0.10;0.10;;;;;;;10.01;100.00;101939.66;10408735;28;20119;-69
2022/01/01 01:29:08;;;;;;;0.10;0.10;;;;;;;10.02;100.00;101941.34;10408696;28;20108;-69
2022/01/01 01:34:09;;;;;;;0.10;0.10;;;;;;;10.05;100.00;101940.25;10408548;28;20080;-69
2022/01/01 01:39:10;;;;;;;0.10;0.10;;;;;;;10.04;100.00;101933.25;10408240;28;20021;-69
2022/01/01 01:44:32;;;;;;;0.10;0.10;;;;;;;10.04;100.00;101927.91;10415856;28;20029;-69
2022/01/01 01:49:33;;;;;;;0.10;0.10;;;;;;;10.02;100.00;101932.50;10449090;28;20028;-69
2022/01/01 01:54:33;;;;;;;0.10;0.10;;;;;;;10.03;100.00;101940.34;10449739;28;20028;-70
2022/01/01 01:59:34;;;;;;;0.00;0.00;;;;;;;10.03;100.00;101937.69;10448668;28;20370;-70
2022/01/01 02:04:34;;;;;;;0.10;0.10;;;;;;;10.04;100.00;101938.56;10409966;28;20044;-69
2022/01/01 02:09:36;;;;;;;0.10;0.10;;;;;;;10.06;100.00;101947.25;10407949;28;20024;-69
2022/01/01 02:15:07;;;;;;;0.10;0.10;;;;;;;10.10;100.00;101954.03;10407805;28;20043;-70
2022/01/01 02:20:13;;;;;;;0.10;0.10;;;;;;;10.11;100.00;101966.34;10407929;28;20604;-69
2022/01/01 02:25:18;;;;;;;0.10;0.10;;;;;;;10.11;100.00;101969.00;10428940;28;20017;-69
2022/01/01 02:30:19;;;;;;;0.10;0.10;;;;;;;10.11;100.00;101958.34;10442830;28;20030;-70
2022/01/01 02:35:20;;;;;;;0.00;0.00;;;;;;;10.11;100.00;101961.03;10415241;28;21172;-69
2022/01/01 02:40:20;;;;;;;0.10;0.10;;;;;;;10.15;100.00;101971.28;10416047;28;20514;-70
2022/01/01 02:45:21;;;;;;;0.10;0.10;;;;;;;10.16;100.00;101977.47;10415469;28;20021;-69
2022/01/01 02:50:21;;;;;;;0.10;0.10;;;;;;;10.16;100.00;101972.97;10415316;28;20051;-69
2022/01/01 02:55:22;;;;;;;0.10;0.10;;;;;;;10.15;100.00;101970.44;10415210;28;20055;-70
2022/01/01 03:00:22;;;;;;;0.10;0.10;;;;;;;10.13;100.00;101973.22;10422198;28;20388;-70
2022/01/01 03:05:23;;;;;;;0.00;0.00;;;;;;;10.13;100.00;101969.72;10414326;28;20809;-69
2022/01/01 03:10:24;;;;;;;0.10;0.10;;;;;;;10.16;100.00;101967.66;10414422;28;20634;-70
2022/01/01 03:15:24;;;;;;;0.08;0.08;;;;;;;10.16;100.00;101980.13;10414497;28;20034;-69
2022/01/01 03:20:24;;;;;;;0.10;0.10;;;;;;;10.17;100.00;101992.44;10414011;28;20032;-70
2022/01/01 03:25:25;;;;;;;0.10;0.10;;;;;;;10.17;100.00;101997.78;10414293;28;20021;-69
2022/01/01 03:30:25;;;;;;;0.10;0.10;;;;;;;10.18;100.00;102000.31;10413057;28;20018;-69
2022/01/01 03:35:26;;;;;;;0.10;0.10;;;;;;;10.17;100.00;101997.78;10413388;28;20026;-69
2022/01/01 03:40:26;;;;;;;0.10;0.10;;;;;;;10.17;100.00;102000.44;10447329;28;20542;-69
2022/01/01 03:45:26;;;;;;;0.10;0.10;;;;;;;10.18;100.00;101999.47;10453805;28;20013;-69
2022/01/01 03:50:26;;;;;;;0.00;0.00;;;;;;;10.17;100.00;102003.09;10454313;28;20279;-69
2022/01/01 03:55:27;;;;;;;0.10;0.10;;;;;;;10.16;100.00;102015.56;10454914;28;20028;-69
2022/01/01 04:00:27;;;;;;;0.10;0.10;;;;;;;10.14;100.00;102011.34;10448065;28;20025;-69
2022/01/01 04:05:28;;;;;;;0.00;0.00;;;;;;;10.12;100.00;102022.13;10413509;28;20021;-69
2022/01/01 04:10:30;;;;;;;0.00;0.00;;;;;;;10.13;100.00;102015.84;10412912;28;20032;-70
2022/01/01 04:15:32;;;;;;;0.10;0.10;;;;;;;10.14;100.00;102035.31;10438818;28;20480;-70
2022/01/01 04:20:33;;;;;;;0.10;0.10;;;;;;;10.14;100.00;102035.31;10452945;28;20426;-69
2022/01/01 04:25:33;;;;;;;0.10;0.10;;;;;;;10.14;100.00;102038.81;10452622;28;20021;-69
2022/01/01 04:30:34;;;;;;;0.00;0.00;;;;;;;10.15;100.00;102045.84;10446346;28;20499;-70
2022/01/01 04:35:34;;;;;;;0.10;0.10;;;;;;;10.14;100.00;102032.66;10410831;28;20057;-69
2022/01/01 04:40:34;;;;;;;0.10;0.10;;;;;;;10.11;100.00;102033.75;10410884;28;20430;-69
2022/01/01 04:45:34;;;;;;;0.10;0.10;;;;;;;10.14;100.00;102043.28;10411044;28;20032;-69
2022/01/01 04:50:35;;;;;;;0.10;0.10;;;;;;;10.16;100.00;102049.34;10407165;28;20092;-69
2022/01/01 04:55:35;;;;;;;0.00;0.00;;;;;;;10.14;100.00;102059.28;10410769;28;20522;-70
2022/01/01 05:00:36;;;;;;;0.03;0.03;;;;;;;10.15;100.00;102063.63;10409422;28;20090;-69
2022/01/01 05:05:36;;;;;;;0.10;0.10;;;;;;;10.14;100.00;102069.91;10453219;22;20048;-69
2022/01/01 05:10:36;;;;;;;0.10;0.10;;;;;;;10.11;100.00;102068.34;10415879;28;20116;-69
2022/01/01 05:15:37;;;;;;;0.10;0.10;;;;;;;10.12;100.00;102074.50;10410296;28;20136;-69
2022/01/01 05:20:37;;;;;;;0.10;0.10;;;;;;;10.13;100.00;102077.06;10409031;28;20314;-69
2022/01/01 05:25:37;;;;;;;0.10;0.10;;;;;;;10.17;100.00;102090.97;10417041;28;20719;-69
2022/01/01 05:30:38;;;;;;;0.10;0.10;;;;;;;10.19;100.00;102091.69;10446170;28;20025;-69
2022/01/01 05:35:38;;;;;;;0.10;0.10;;;;;;;10.21;100.00;102087.09;10412616;28;20022;-69
2022/01/01 05:40:38;;;;;;;0.00;0.00;;;;;;;10.21;100.00;102089.75;10408776;28;20025;-69
2022/01/01 05:45:42;;;;;;;0.00;0.00;;;;;;;10.20;100.00;102107.53;10408922;28;20013;-69
2022/01/01 05:50:42;;;;;;;0.10;0.10;;;;;;;10.20;100.00;102096.88;10407320;28;20287;-69
2022/01/01 05:55:43;;;;;;;0.10;0.10;;;;;;;10.19;100.00;102105.00;10446938;28;20027;-69
2022/01/01 06:00:44;;;;;;;0.10;0.10;;;;;;;10.17;100.00;102101.63;10446202;28;20037;-69
2022/01/01 06:05:45;;;;;;;0.10;0.10;;;;;;;10.14;100.00;102100.03;10419237;28;20056;-69
2022/01/01 06:10:45;;;;;;;0.10;0.10;;;;;;;10.12;100.00;102111.78;10447083;28;20024;-69
2022/01/01 06:15:45;;;;;;;0.00;0.00;;;;;;;10.10;100.00;102111.09;10457428;28;20028;-70
2022/01/01 06:20:46;;;;;;;0.00;0.00;;;;;;;10.09;100.00;102122.69;10457414;28;20259;-70
2022/01/01 06:25:47;;;;;;;0.00;0.00;;;;;;;10.09;100.00;102138.66;10472455;28;20013;-70
2022/01/01 06:30:47;;;;;;;0.00;0.00;;;;;;;10.10;100.00;102132.38;10452761;28;20026;-70
2022/01/01 06:35:48;;;;;;;0.10;0.10;;;;;;;10.09;100.00;102126.19;10419217;28;20480;-70
2022/01/01 06:40:48;;;;;;;0.10;0.10;;;;;;;10.10;100.00;102135.88;10423810;28;20028;-70
2022/01/01 06:45:49;;;;;;;0.10;0.10;;;;;;;10.11;100.00;102142.06;10415874;28;20028;-70
2022/01/01 06:50:51;;;;;;;0.10;0.10;;;;;;;10.10;100.00;102143.88;10414678;28;20029;-70
2022/01/01 06:55:52;;;;;;;0.10;0.10;;;;;;;10.10;100.00;102149.19;10413468;28;20049;-70
2022/01/01 07:00:52;;;;;;;0.10;0.10;;;;;;;10.11;100.00;102158.88;10415591;28;20071;-70
2022/01/01 07:05:53;;;;;;;0.10;0.10;;;;;;;10.10;100.00;102153.69;10428247;28;20259;-70
2022/01/01 07:10:53;;;;;;;0.10;0.10;;;;;;;10.09;100.00;102160.81;10426787;28;20499;-70
2022/01/01 07:15:53;;;;;;;0.00;0.00;;;;;;;10.09;100.00;102159.97;10455883;28;20070;-70
2022/01/01 07:20:54;;;;;;;0.00;0.00;;;;;;;10.07;100.00;102162.75;10419062;28;20021;-69
2022/01/01 07:25:54;;;;;;;0.10;0.10;;;;;;;10.06;100.00;102173.53;10414567;28;20627;-69
2022/01/01 07:30:54;;;;;;;0.10;0.10;;;;;;;10.04;100.00;102180.81;10416148;28;20371;-69
2022/01/01 07:35:55;;;;;;;0.10;0.10;;;;;;;10.05;100.00;102179.81;10417146;28;20017;-69
2022/01/01 07:40:56;;;;;;;0.10;0.10;;;;;;;10.04;100.00;102183.47;10411571;28;20017;-69
2022/01/01 07:45:56;;;;;;;0.10;0.10;;;;;;;10.04;100.00;102199.44;10412879;28;20388;-69
2022/01/01 07:50:56;;;;;;;0.10;0.10;;;;;;;10.07;100.00;102201.84;10412505;28;20063;-69
2022/01/01 07:55:57;;;;;;;0.10;0.10;;;;;;;10.08;100.00;102211.53;10418256;28;20021;-69
2022/01/01 08:00:57;;;;;;;0.00;0.00;;;;;;;10.08;100.00;102199.06;10416380;28;20104;-69
2022/01/01 08:05:57;;;;;;;0.10;0.10;;;;;;;10.11;100.00;102208.63;10419520;28;20267;-69
2022/01/01 08:10:58;;;;;;;0.10;0.10;;;;;;;10.09;100.00;102211.38;10411710;28;20029;-69
2022/01/01 08:15:59;;;;;;;0.10;0.10;;;;;;;10.12;100.00;102202.31;10411921;28;20296;-69
2022/01/01 08:20:59;;;;;;;0.10;0.10;;;;;;;10.13;100.00;102215.50;10411304;28;20017;-69
2022/01/01 08:26:00;;;;;;;0.00;0.00;;;;;;;10.15;100.00;102208.25;10411842;28;20009;-69
2022/01/01 08:31:00;;;;;;;0.10;0.10;;;;;;;10.19;100.00;102214.19;10423106;28;20032;-69
2022/01/01 08:36:03;;;;;;;0.10;0.10;;;;;;;10.20;100.00;102231.84;10425207;28;20021;-69
2022/01/01 08:41:03;;;;;;;0.10;0.10;;;;;;;10.20;100.00;102231.84;10410571;28;20045;-69
2022/01/01 08:46:04;;;;;;;0.10;0.10;;;;;;;10.23;100.00;102226.28;10411237;28;20457;-69
2022/01/01 08:51:16;;;;;;;0.10;0.10;;;;;;;10.25;100.00;102212.84;10410269;28;20018;-69
2022/01/01 08:56:17;;;;;;;0.10;0.10;;;;;;;10.25;100.00;102221.69;10410307;28;20375;-69
2022/01/01 09:01:17;;;;;;;0.10;0.10;;;;;;;10.28;100.00;102234.78;10412544;28;20148;-69
2022/01/01 09:06:18;;;;;;;0.00;0.00;;;;;;;10.29;100.00;102249.78;10413685;28;20029;-69
2022/01/01 09:11:18;;;;;;;0.10;0.10;;;;;;;10.28;100.00;102248.09;10418248;28;20030;-69
2022/01/01 09:16:20;;;;;;;0.10;0.10;;;;;;;10.28;100.00;102249.91;10417172;28;20074;-69
2022/01/01 09:21:21;;;;;;;0.00;0.00;;;;;;;10.30;100.00;102248.81;10440003;28;20033;-69
2022/01/01 09:26:21;;;;;;;0.10;0.10;;;;;;;10.33;100.00;102267.22;10409461;28;20024;-69
2022/01/01 09:31:21;;;;;;;0.10;0.10;;;;;;;10.36;100.00;102274.13;10413482;28;20044;-69
2022/01/01 09:36:22;;;;;;;0.05;0.05;;;;;;;10.34;100.00;102276.06;10420210;28;20496;-69
2022/01/01 09:41:22;;;;;;;0.10;0.10;;;;;;;10.36;100.00;102274.97;10406626;28;21028;-69
2022/01/01 09:46:25;;;;;;;0.00;0.00;;;;;;;10.37;100.00;102278.47;10408724;28;20104;-69
2022/01/01 09:51:26;;;;;;;0.10;0.10;;;;;;;10.39;100.00;102285.38;10431290;28;20596;-69
2022/01/01 09:56:26;;;;;;;0.10;0.10;;;;;;;10.42;100.00;102292.28;10408453;28;20014;-69
2022/01/01 10:01:27;;;;;;;0.10;0.10;;;;;;;10.44;100.00;102300.97;10411204;28;20388;-69
2022/01/01 10:06:29;;;;;;;0.10;0.10;;;;;;;10.48;100.00;102302.44;10412162;28;20482;-69
2022/01/01 10:11:30;;;;;;;0.10;0.10;;;;;;;10.49;100.00;102316.59;10407713;28;20017;-69
2022/01/01 10:16:31;;;;;;;0.10;0.10;;;;;;;10.45;100.00;102299.19;10408071;28;20057;-69
2022/01/01 10:21:36;;;;;;;0.10;0.10;;;;;;;10.46;100.00;102307.03;10407636;28;20053;-69
2022/01/01 10:32:13;;;;;;;0.10;0.10;;;;;;;10.53;100.00;102315.38;10384576;28;20420;-69
2022/01/01 10:37:14;;;;;;;0.10;0.10;;;;;;;10.59;100.00;102314.91;10409505;28;20018;-69
2022/01/01 10:42:15;;;;;;;0.10;0.10;;;;;;;10.59;100.00;102322.91;10411064;28;20026;-69
2022/01/01 10:47:19;;;;;;;0.10;0.10;;;;;;;10.63;100.00;102313.69;10406870;28;20043;-69
2022/01/01 10:52:24;;;;;;;0.10;0.10;;;;;;;10.66;100.00;102318.75;10407870;28;20275;-69
2022/01/01 10:57:25;;;;;;;0.10;0.10;;;;;;;10.68;100.00;102308.84;10414283;28;20148;-69
2022/01/01 11:02:26;;;;;;;0.10;0.10;;;;;;;10.69;100.00;102305.19;10419303;28;20366;-69
2022/01/01 11:07:27;;;;;;;0.10;0.10;;;;;;;10.72;100.00;102307.59;10436252;22;20045;-68
2022/01/01 11:12:29;;;;;;;0.00;0.00;;;;;;;10.81;100.00;102298.88;10447520;28;20086;-67
2022/01/01 11:17:30;;;;;;;0.00;0.00;;;;;;;10.91;100.00;102290.09;10455390;28;20029;-68
2022/01/01 11:22:31;;;;;;;0.10;0.10;;;;;;;10.94;100.00;102289.84;10456600;28;20017;-69
2022/01/01 11:27:31;;;;;;;0.10;0.10;;;;;;;10.94;100.00;102287.19;10455824;28;20036;-69
2022/01/01 11:32:50;;;;;;;0.10;0.10;;;;;;;10.96;100.00;102272.75;10467698;28;20036;-69
2022/01/01 11:38:13;;;;;;;0.10;0.10;;;;;;;10.97;100.00;102269.16;10497862;28;20123;-68
2022/01/01 11:43:40;;;;;;;0.10;0.10;;;;;;;10.94;100.00;102257.88;10497713;28;20400;-68
2022/01/01 11:48:41;;;;;;;0.10;0.10;;;;;;;10.92;100.00;102243.84;10497013;28;20017;-67
2022/01/01 11:54:04;;;;;;;0.10;0.10;;;;;;;10.93;100.00;102238.38;10497573;28;20049;-68
2022/01/01 11:59:17;;;;;;;0.10;0.10;;;;;;;10.95;100.00;102235.59;10497434;28;20024;-68
2022/01/01 12:04:22;;;;;;;0.10;0.10;;;;;;;10.95;100.00;102233.75;10445601;28;20090;-67
2022/01/01 12:09:23;;;;;;;0.10;0.10;;;;;;;10.95;100.00;102222.25;10450240;28;20021;-68
2022/01/01 12:14:26;;;;;;;0.10;0.10;;;;;;;10.95;100.00;102222.25;10453335;28;20211;-68
2022/01/01 12:19:36;;;;;;;0.00;0.00;;;;;;;10.93;100.00;102217.03;10451587;28;20036;-68
2022/01/01 12:24:41;;;;;;;0.10;0.10;;;;;;;10.92;100.00;102211.84;10452780;28;20062;-68
2022/01/01 12:29:42;;;;;;;0.10;0.10;;;;;;;10.93;100.00;102203.69;10452578;28;20021;-68
2022/01/01 12:35:05;;;;;;;0.10;0.10;;;;;;;10.95;100.00;102216.91;10450911;28;20013;-69
2022/01/01 12:40:08;;;;;;;0.03;0.03;;;;;;;10.95;100.00;102200.94;10445565;28;20264;-69
2022/01/01 12:45:09;;;;;;;0.10;0.10;;;;;;;10.94;100.00;102196.53;10409901;28;20029;-69
2022/01/01 12:50:09;;;;;;;0.10;0.10;;;;;;;10.92;100.00;102193.19;10422992;28;20044;-68
2022/01/01 12:55:10;;;;;;;0.00;0.00;;;;;;;10.87;100.00;102191.72;10450475;28;20021;-68
2022/01/01 13:00:22;;;;;;;0.10;0.10;;;;;;;10.85;100.00;102193.69;10450367;28;20506;-68
2022/01/01 13:05:23;;;;;;;0.10;0.10;;;;;;;10.83;100.00;102182.31;10452436;28;20430;-68
2022/01/01 13:10:24;;;;;;;0.10;0.10;;;;;;;10.87;100.00;102154.41;10450264;28;20119;-68
2022/01/01 13:15:24;;;;;;;0.10;0.10;;;;;;;10.98;100.00;102142.84;10450670;28;20017;-70
2022/01/01 13:20:25;;;;;;;0.10;0.10;;;;;;;11.07;100.00;102138.56;10437721;28;20032;-68
2022/01/01 13:25:25;;;;;;;0.10;0.10;;;;;;;11.17;100.00;102149.28;10413280;28;20323;-68
2022/01/01 13:30:26;;;;;;;0.10;0.10;;;;;;;11.24;100.00;102140.63;10412710;28;20028;-68
2022/01/01 13:35:29;;;;;;;0.10;0.10;;;;;;;11.29;100.00;102153.59;10447254;28;20028;-68
2022/01/01 13:40:29;;;;;;;0.10;0.10;;;;;;;11.31;100.00;102148.94;10423639;28;20385;-68
2022/01/01 13:45:30;;;;;;;0.10;0.10;;;;;;;11.30;100.00;102160.59;10444561;28;20024;-68
2022/01/01 13:50:40;;;;;;;0.10;0.10;;;;;;;11.24;100.00;102164.66;10449664;28;20056;-68
2022/01/01 13:55:55;;;;;;;0.10;0.10;;;;;;;11.20;100.00;102168.56;10444977;28;20044;-68
2022/01/01 14:00:57;;;;;;;0.10;0.10;;;;;;;11.16;100.00;102169.78;10443913;28;20017;-68
2022/01/01 14:05:59;;;;;;;0.00;0.00;;;;;;;11.11;100.00;102161.31;10449644;28;20025;-68
2022/01/01 14:11:01;;;;;;;0.05;0.05;;;;;;;11.07;100.00;102158.06;10449297;28;20534;-68
2022/01/01 14:16:20;;;;;;;0.10;0.10;;;;;;;11.04;100.00;102161.00;10449003;28;20033;-68
2022/01/01 14:21:25;;;;;;;0.10;0.10;;;;;;;11.00;100.00;102166.72;10449400;28;20029;-68
2022/01/01 14:26:26;;;;;;;0.10;0.10;;;;;;;10.97;100.00;102161.66;10451280;28;20099;-68
2022/01/01 14:31:30;;;;;;;0.10;0.10;;;;;;;10.94;100.00;102159.22;10455093;28;20032;-68
2022/01/01 14:36:41;;;;;;;0.10;0.10;;;;;;;10.93;100.00;102155.72;10444579;28;20029;-69
2022/01/01 14:41:42;;;;;;;0.00;0.00;;;;;;;10.93;100.00;102139.72;10446805;28;20107;-68
2022/01/01 14:46:51;;;;;;;0.00;0.00;;;;;;;10.93;100.00;102153.06;10450055;28;20463;-68
2022/01/01 14:52:13;;;;;;;0.10;0.10;;;;;;;10.88;100.00;102140.13;10454374;28;20025;-68
2022/01/01 14:57:14;;;;;;;0.10;0.10;;;;;;;10.84;100.00;102136.00;10456010;28;20056;-68
2022/01/01 15:02:16;;;;;;;0.10;0.10;;;;;;;10.80;100.00;102129.25;10447284;28;20027;-68
2022/01/01 15:07:18;;;;;;;0.10;0.10;;;;;;;10.74;100.00;102142.25;10455595;28;20507;-68
2022/01/01 15:12:18;;;;;;;0.10;0.10;;;;;;;10.67;100.00;102154.38;10455680;28;20028;-68
2022/01/01 15:17:20;;;;;;;0.10;0.10;;;;;;;10.60;100.00;102159.38;10455571;28;20033;-68
2022/01/01 15:22:36;;;;;;;0.10;0.10;;;;;;;10.53;100.00;102160.84;10455363;28;20298;-68
2022/01/01 15:27:38;;;;;;;0.10;0.10;;;;;;;10.50;100.00;102159.31;10455067;28;20023;-68
2022/01/01 15:38:05;;;;;;;0.10;0.10;;;;;;;10.50;100.00;102158.44;10454411;28;20020;-68
2022/01/01 15:43:06;;;;;;;0.10;0.10;;;;;;;10.53;100.00;102131.53;10443112;28;20024;-68
2022/01/01 15:48:07;;;;;;;0.10;0.10;;;;;;;10.60;100.00;102124.75;10424182;28;20017;-68
2022/01/01 15:53:11;;;;;;;0.10;0.10;;;;;;;10.65;100.00;102119.91;10455075;28;20025;-68
2022/01/01 15:58:17;;;;;;;0.10;0.10;;;;;;;10.69;100.00;102105.31;10454279;28;20035;-68
2022/01/01 16:03:46;;;;;;;0.10;0.10;;;;;;;10.70;100.00;102085.69;10448924;28;20044;-66
2022/01/01 16:08:53;;;;;;;0.10;0.10;;;;;;;10.75;100.00;102078.16;10453073;28;20035;-67
2022/01/01 16:13:56;;;;;;;0.10;0.10;;;;;;;10.78;100.00;102061.91;10452314;28;20013;-67
2022/01/01 16:18:58;;;;;;;0.10;0.10;;;;;;;10.80;100.00;102075.97;10444640;28;20086;-68
2022/01/01 16:24:00;;;;;;;0.10;0.10;;;;;;;10.84;100.00;102093.38;10430695;28;20022;-68
2022/01/01 16:29:00;;;;;;;0.10;0.10;;;;;;;10.84;100.00;102080.03;10411222;28;20014;-68
2022/01/01 16:34:03;;;;;;;0.10;0.10;;;;;;;10.84;100.00;102071.19;10442724;28;20033;-68
2022/01/01 16:39:04;;;;;;;0.10;0.10;;;;;;;10.85;100.00;102079.09;10451779;28;20057;-68
2022/01/01 16:44:19;;;;;;;0.10;0.10;;;;;;;10.87;100.00;102077.09;10450031;28;20040;-68
2022/01/01 16:49:29;;;;;;;0.08;0.08;;;;;;;10.91;100.00;102066.19;10450970;28;20025;-68
2022/01/01 16:54:32;;;;;;;0.10;0.10;;;;;;;10.94;100.00;102074.78;10453238;28;20024;-68
2022/01/01 16:59:35;;;;;;;0.10;0.10;;;;;;;10.98;100.00;102062.03;10452665;28;20021;-67
2022/01/01 17:04:58;;;;;;;0.10;0.10;;;;;;;10.97;100.00;102060.34;10447572;28;20025;-68
2022/01/01 17:09:59;;;;;;;0.10;0.10;;;;;;;10.94;100.00;102058.78;10456616;22;20041;-68
2022/01/01 17:15:02;;;;;;;0.10;0.10;;;;;;;10.92;100.00;102049.22;10451918;28;20188;-68
2022/01/01 17:20:08;;;;;;;0.10;0.10;;;;;;;10.90;100.00;102038.69;10451557;28;20029;-68
2022/01/01 17:25:10;;;;;;;0.10;0.10;;;;;;;10.81;100.00;102024.31;10451682;28;20029;-68
2022/01/01 17:30:11;;;;;;;0.10;0.10;;;;;;;10.75;100.00;102032.84;10449401;28;20120;-68
2022/01/01 17:35:22;;;;;;;0.10;0.10;;;;;;;10.68;100.00;102021.03;10448668;28;20025;-68
2022/01/01 17:40:23;;;;;;;0.10;0.10;;;;;;;10.61;100.00;102019.84;10451275;28;20108;-68
2022/01/01 17:45:26;;;;;;;0.00;0.00;;;;;;;10.56;100.00;102009.59;10451709;28;20472;-68
2022/01/01 17:50:27;;;;;;;0.10;0.10;;;;;;;10.56;100.00;101987.41;10450628;28;20024;-68
2022/01/01 17:55:28;;;;;;;0.00;0.00;;;;;;;10.55;100.00;101980.41;10449548;28;20491;-68
2022/01/01 18:00:29;;;;;;;0.10;0.10;;;;;;;10.61;100.00;101970.06;10444077;28;20029;-68
2022/01/01 18:05:30;;;;;;;0.00;0.00;;;;;;;10.63;100.00;101969.94;10448479;28;20051;-67
2022/01/01 18:10:38;;;;;;;0.10;0.10;;;;;;;10.58;100.00;101977.50;10441436;28;20040;-68
2022/01/01 18:15:44;;;;;;;0.10;0.10;;;;;;;10.58;100.00;101985.47;10441519;28;20029;-68
2022/01/01 18:20:47;;;;;;;0.10;0.10;;;;;;;10.57;100.00;101962.50;10449062;28;20028;-68
2022/01/01 18:25:55;;;;;;;0.10;0.10;;;;;;;10.57;100.00;101981.97;10448820;28;20028;-68
2022/01/01 18:31:04;;;;;;;0.00;0.00;;;;;;;10.52;100.00;101970.84;10448244;28;20118;-68
2022/01/01 18:36:06;;;;;;;0.10;0.10;;;;;;;10.46;100.00;101949.25;10449000;28;20457;-68
2022/01/01 18:41:14;;;;;;;0.10;0.10;;;;;;;10.45;100.00;101947.56;10448333;28;20021;-68
2022/01/01 18:46:15;;;;;;;0.10;0.10;;;;;;;10.37;100.00;101946.38;10448627;28;20108;-68
2022/01/01 18:51:33;;;;;;;0.10;0.10;;;;;;;10.28;100.00;101949.00;10433584;28;20388;-68
2022/01/01 18:56:46;;;;;;;0.10;0.10;;;;;;;10.23;100.00;101949.34;10405856;28;20018;-68
2022/01/01 19:01:49;;;;;;;0.00;0.00;;;;;;;10.20;100.00;101954.91;10421894;28;20021;-68
2022/01/01 19:06:49;;;;;;;0.10;0.10;;;;;;;10.19;100.00;101929.28;10447863;28;20025;-68
2022/01/01 19:11:53;;;;;;;0.10;0.10;;;;;;;10.23;100.00;101940.50;10448043;28;20103;-68
2022/01/01 19:16:56;;;;;;;0.10;0.10;;;;;;;10.23;100.00;101945.81;10455082;28;20271;-68
2022/01/01 19:21:57;;;;;;;0.00;0.00;;;;;;;10.25;100.00;101960.72;10454918;28;20027;-68
2022/01/01 19:26:57;;;;;;;0.10;0.10;;;;;;;10.27;100.00;101950.81;10449723;28;20024;-68
2022/01/01 19:31:58;;;;;;;0.00;0.00;;;;;;;10.28;100.00;101939.19;10443555;28;20067;-68
2022/01/01 19:37:02;;;;;;;0.10;0.10;;;;;;;10.31;100.00;101924.75;10454490;28;20064;-68
2022/01/01 19:42:09;;;;;;;0.10;0.10;;;;;;;10.34;100.00;101925.34;10454648;28;20025;-68
2022/01/01 19:47:30;;;;;;;0.10;0.10;;;;;;;10.36;100.00;101902.09;10451500;28;20021;-68
2022/01/01 19:52:31;;;;;;;0.10;0.10;;;;;;;10.41;100.00;101870.59;10448256;28;20032;-68
2022/01/01 19:57:34;;;;;;;0.10;0.10;;;;;;;10.47;100.00;101873.66;10485707;28;20020;-68
2022/01/01 20:02:35;;;;;;;0.00;0.00;;;;;;;10.48;100.00;101864.72;10453000;28;20020;-68
2022/01/01 20:07:36;;;;;;;0.10;0.10;;;;;;;10.52;100.00;101858.97;10426257;28;20025;-68
2022/01/01 20:12:37;;;;;;;0.00;0.00;;;;;;;10.55;100.00;101849.88;10412509;28;20021;-68
2022/01/01 20:17:37;;;;;;;0.10;0.10;;;;;;;10.50;100.00;101839.63;10411936;28;20029;-68
2022/01/01 20:22:38;;;;;;;0.10;0.10;;;;;;;10.49;100.00;101837.94;10412170;28;20068;-68
2022/01/01 20:27:40;;;;;;;0.10;0.10;;;;;;;10.46;100.00;101859.50;10449448;28;20029;-68
2022/01/01 20:32:41;;;;;;;0.10;0.10;;;;;;;10.47;100.00;101839.91;10451822;28;20041;-68
2022/01/01 20:37:42;;;;;;;0.10;0.10;;;;;;;10.52;100.00;101820.84;10451230;28;20025;-68
2022/01/01 20:42:43;;;;;;;0.10;0.10;;;;;;;10.49;100.00;101837.09;10432766;28;20028;-68
2022/01/01 20:47:43;;;;;;;0.10;0.10;;;;;;;10.47;100.00;101823.06;10410892;28;20013;-68
2022/01/01 20:52:47;;;;;;;0.10;0.10;;;;;;;10.41;100.00;101817.31;10411510;28;20049;-68
2022/01/01 20:57:50;;;;;;;0.10;0.10;;;;;;;10.40;100.00;101799.63;10410464;28;20025;-68
2022/01/01 21:02:57;;;;;;;0.00;0.00;;;;;;;10.42;100.00;101770.22;10434012;28;20099;-68
2022/01/01 21:08:04;;;;;;;0.00;0.00;;;;;;;10.40;100.00;101756.19;10450740;28;20025;-68
2022/01/01 21:13:08;;;;;;;0.10;0.10;;;;;;;10.36;100.00;101773.41;10450909;28;20036;-68
2022/01/01 21:18:09;;;;;;;;;;;;;;;10.31;100.00;101770.31;10451029;28;20029;-68
2022/01/01 21:23:09;;;;;;;0.10;0.10;;;;;;;10.26;100.00;101752.03;10441840;28;20348;-68
2022/01/01 21:28:09;;;;;;;0.10;0.10;;;;;;;10.22;100.00;101771.09;10410029;28;20013;-67
2022/01/01 21:33:10;;;;;;;0.10;0.10;;;;;;;10.18;100.00;101781.13;10434566;28;20027;-68
2022/01/01 21:38:10;;;;;;;0.10;0.10;;;;;;;10.10;100.00;101775.66;10450109;28;20071;-68
2022/01/01 21:43:13;;;;;;;0.10;0.10;;;;;;;10.16;100.00;101809.72;10448891;28;20468;-68
2022/01/01 21:48:14;;;;;;;0.03;0.03;;;;;;;10.20;100.00;101816.47;10449775;28;20024;-68
2022/01/01 21:53:15;;;;;;;0.10;0.10;;;;;;;10.27;100.00;101812.34;10450462;28;20361;-68
2022/01/01 21:58:16;;;;;;;0.03;0.03;;;;;;;10.38;100.00;101820.25;10436408;28;20040;-68
2022/01/01 22:03:16;;;;;;;0.10;0.10;;;;;;;10.46;100.00;101819.56;10432178;28;20484;-68
2022/01/01 22:08:18;;;;;;;0.10;0.10;;;;;;;10.50;100.00;101817.47;10413792;28;20034;-68
2022/01/01 22:13:18;;;;;;;0.05;0.05;;;;;;;10.45;100.00;101803.72;10409322;28;20021;-68
2022/01/01 22:18:18;;;;;;;0.00;0.00;;;;;;;10.46;100.00;101797.41;10442764;28;20025;-68
2022/01/01 22:23:26;;;;;;;0.10;0.10;;;;;;;10.40;100.00;101791.63;10448612;28;20036;-68
2022/01/01 22:28:27;;;;;;;0.10;0.10;;;;;;;10.35;100.00;101793.84;10431147;28;20079;-67
2022/01/01 22:33:27;;;;;;;0.05;0.05;;;;;;;10.30;100.00;101789.94;10407882;28;20034;-68
2022/01/01 22:38:30;;;;;;;0.03;0.03;;;;;;;10.22;100.00;101793.22;10407319;28;20025;-68
2022/01/01 22:43:30;;;;;;;0.00;0.00;;;;;;;10.13;100.00;101772.72;10412817;28;20025;-68
2022/01/01 22:48:31;;;;;;;0.10;0.10;;;;;;;10.06;100.00;101766.22;10432867;28;20063;-68
2022/01/01 22:53:31;;;;;;;0.10;0.10;;;;;;;10.01;100.00;101763.16;10455981;28;20350;-68
2022/01/01 22:58:31;;;;;;;0.03;0.03;;;;;;;9.97;100.00;101773.19;10455669;28;20013;-67
2022/01/01 23:03:31;;;;;;;0.00;0.00;;;;;;;9.97;100.00;101758.06;10455205;28;20017;-68
2022/01/01 23:08:32;;;;;;;0.10;0.10;;;;;;;9.94;100.00;101747.69;10532646;22;20050;-69